首页
METAR-TAF:

METAR-TAF

机场 :

那拉提瓦, 泰国

纬度: 6-31-12N, 经度: 101-44-36E, 海拔: 5米

当前天气观测

该预报发布于2小时和20分钟前的11:00 UTC
风速4节,风向多变
温度 27°C
湿度 79%
气压 1009 hPa
能见度10公里或以上
少量云层高于2000英尺
散云层高于10000英尺

METAR: VTSC 171100Z VRB04KT 9999 FEW020 SCT100 27/23 Q1009 NOSIG

时间: 20:20 (13:20 UTC)

预报

该预报发布于2小时和20分钟前的11:00 UTC
预报有效从17日的 12点(UTC)到 18日的 12点(UTC)
风速3节,风向
能见度10公里或以上
少量云层高于2000英尺
成为
从 18日的 04点(UTC)到 18日的 06点(UTC)
风速8节,风向东北
短暂存在
从 18日的 06点(UTC)到 18日的 12点(UTC)
风速15节,风向多变,有时为25节阵风
能見度: 3000
少量云层高于1600英尺, 积雨云.
散云层高于1800英尺
多云层高于10000英尺
雷暴, 雨,

TAF: VTSC 171100Z 1712/1812 19003KT 9999 FEW020 BECMG 1804/1806 04008KT TEMPO 1806/1812 VRB15G25KT 3000 TSRA FEW016CB SCT018 BKN100

超过4000个机场的气象观测和天气预报(METAR&TAF报告)。

可查询的气象台以黄色和红色小点在地图上表示。

将鼠标移到小点上方,可查看气象台名称。

然后点击查看天气观测和预报。

如需切换地图:点击带黑十字的绿色按钮放大地图;点击带横线的绿色按钮缩小地图;或者点击绿色箭头查看邻近地区的地图。


METAR-TAF: